Welcome to Trans World Virtual Airlines!

Welcome TWVA's Newest Pilot:

TWA2297 Terrance P OLeary

Not a Trans World pilot yet?
Apply Now!




Sign-in with your pilot id or email, or register

Flight TWA545

  • Submitted By: Austin Hill
  • Departure Airport: Kansas City International Airport (KMCI)
  • Arrival Airport: Dallas/Fort Worth International Airport (KDFW)
  • Aircraft: MD-83 (N44266TW)
  • Flight Time: 01.52
  • Date Submitted: 01/28/2018
  • Route: OJC - DOSOA - TUL - CVE -KDFW
  • Status: Accepted
Flight Details
Gross Revenue:
(116 load / $ 195.00 per unit
$ 22, 620.00
Fuel Cost:
(14735 fuel used @ 0.8 / unit)
$ 11, 788.00

Additional Log Information:

View Log

FS[15:36] Aircraft Title - MD_83 Paint7
FS[15:36] Aircraft Model - MD83
FS[15:36] Flight Number TWA545
FS[15:36] Departure KMCI
FS[15:36] Destination KDFW
FS[15:36] Boarding
FS[15:44] Pushing Back
FS[15:49] Taxiing to Runway
FS[15:53] Taking Off
FS[15:54] Taking Off
FS[15:54] 180kts
FS[15:54] pitch angle 12 degrees
FS[15:54] 30615 (lbs) of fuel onboard
FS[15:54] Climbing
FS[16:10] TOC Reached
FS[16:10] Cruise 30000
FS[16:41] TOD Reached
FS[16:41] Descending
FS[16:57] On Approach
FS[17:10] Landing Rate -138fpm
FS[17:10] 18251 (lbs) of fuel onboard
FS[17:10] pitch angle 7 degrees
FS[17:10] Taxiing to Gate
FS[17:21] Arrived
FS[17:28] Max Sim Rate: 1x
FS[17:28] kACARS_Free Version 1.0.1.1

Comments

Commenter Comment
Austin Hill MCI 281534Z 00810KT 10SM BKN120 02/M03 A3041 // KDFW 281646Z 06004KT 10SM CLR 17/M02 A3031

Route Map